Seattle, Washington
Traffic Map
Current Weather Conditions
Seattle, Washington
Overcast Light Rain
Overcast
58°
Feels Like: 58°
Wind Chill: 58° Ceiling: 2300
Heat Index: 58° Visibility: 10mi
Dew Point: 52° Wind: 14mph
Humidity: 81% Direction: 140° (SE)
Pressure: 29.56in Gusts: 0mph
Raw Report DataKBFI 230153Z 14012KT 10SM -RA BKN023 OVC075 14/11 A2956 RMK AO2 SLP011 P0002 T01440111
Traffic Incident Summary
Active as of:
Severity:
Category:
InformationThere was an issue retrieving the traffic information for this location. Please try a different location or try again shortly.
Advertisements
Track Severe Weather on mobile